sensor_id;sensor_type;location;lat;lon;timestamp;temperature;humidity
72128;DHT22;60000;51.030;7.024;2024-01-27T00:00:16;3.21;82.64
72128;DHT22;60000;51.030;7.024;2024-01-27T00:02:42;3.16;82.53
72128;DHT22;60000;51.030;7.024;2024-01-27T00:05:07;3.09;82.25
72128;DHT22;60000;51.030;7.024;2024-01-27T00:07:33;3.04;82.52
72128;DHT22;60000;51.030;7.024;2024-01-27T00:09:58;2.95;82.38
72128;DHT22;60000;51.030;7.024;2024-01-27T00:12:25;2.87;82.54
72128;DHT22;60000;51.030;7.024;2024-01-27T00:14:50;2.87;83.18
72128;DHT22;60000;51.030;7.024;2024-01-27T00:17:16;2.83;82.93
72128;DHT22;60000;51.030;7.024;2024-01-27T00:19:41;2.77;83.21
72128;DHT22;60000;51.030;7.024;2024-01-27T00:22:07;2.72;83.67
72128;DHT22;60000;51.030;7.024;2024-01-27T00:24:32;2.70;83.64
72128;DHT22;60000;51.030;7.024;2024-01-27T00:26:58;2.73;83.90
72128;DHT22;60000;51.030;7.024;2024-01-27T00:29:23;2.67;83.91
72128;DHT22;60000;51.030;7.024;2024-01-27T00:31:48;2.66;84.15
72128;DHT22;60000;51.030;7.024;2024-01-27T00:34:19;2.60;84.14
72128;DHT22;60000;51.030;7.024;2024-01-27T00:36:44;2.56;84.31
72128;DHT22;60000;51.030;7.024;2024-01-27T00:39:14;2.53;84.39
72128;DHT22;60000;51.030;7.024;2024-01-27T00:41:40;2.49;84.63
72128;DHT22;60000;51.030;7.024;2024-01-27T00:44:05;2.49;84.94
72128;DHT22;60000;51.030;7.024;2024-01-27T00:46:30;2.42;85.02
72128;DHT22;60000;51.030;7.024;2024-01-27T00:48:56;2.37;85.04
72128;DHT22;60000;51.030;7.024;2024-01-27T00:51:21;2.29;84.94
72128;DHT22;60000;51.030;7.024;2024-01-27T00:53:46;2.26;85.06
72128;DHT22;60000;51.030;7.024;2024-01-27T00:56:12;2.19;85.22
72128;DHT22;60000;51.030;7.024;2024-01-27T00:58:37;2.14;85.33
72128;DHT22;60000;51.030;7.024;2024-01-27T01:01:02;2.08;85.38
72128;DHT22;60000;51.030;7.024;2024-01-27T01:03:28;2.09;85.75
72128;DHT22;60000;51.030;7.024;2024-01-27T01:05:54;2.05;85.67
72128;DHT22;60000;51.030;7.024;2024-01-27T01:08:19;2.01;86.02
72128;DHT22;60000;51.030;7.024;2024-01-27T01:10:44;1.97;86.15
72128;DHT22;60000;51.030;7.024;2024-01-27T01:13:10;1.94;86.40
72128;DHT22;60000;51.030;7.024;2024-01-27T01:15:35;1.89;86.44
72128;DHT22;60000;51.030;7.024;2024-01-27T01:18:01;1.89;86.78
72128;DHT22;60000;51.030;7.024;2024-01-27T01:20:26;1.84;86.44
72128;DHT22;60000;51.030;7.024;2024-01-27T01:22:52;1.78;86.58
72128;DHT22;60000;51.030;7.024;2024-01-27T01:25:18;1.75;86.81
72128;DHT22;60000;51.030;7.024;2024-01-27T01:27:45;1.70;86.78
72128;DHT22;60000;51.030;7.024;2024-01-27T01:30:10;1.65;86.98
72128;DHT22;60000;51.030;7.024;2024-01-27T01:32:36;1.63;87.23
72128;DHT22;60000;51.030;7.024;2024-01-27T01:35:01;1.61;87.37
72128;DHT22;60000;51.030;7.024;2024-01-27T01:37:26;1.58;87.58
72128;DHT22;60000;51.030;7.024;2024-01-27T01:39:52;1.58;87.67
72128;DHT22;60000;51.030;7.024;2024-01-27T01:42:17;1.56;87.66
72128;DHT22;60000;51.030;7.024;2024-01-27T01:44:43;1.51;87.64
72128;DHT22;60000;51.030;7.024;2024-01-27T01:47:08;1.44;87.66
72128;DHT22;60000;51.030;7.024;2024-01-27T01:49:34;1.44;87.73
72128;DHT22;60000;51.030;7.024;2024-01-27T01:52:01;1.40;88.07
72128;DHT22;60000;51.030;7.024;2024-01-27T01:54:26;1.37;88.07
72128;DHT22;60000;51.030;7.024;2024-01-27T01:56:54;1.36;88.28
72128;DHT22;60000;51.030;7.024;2024-01-27T01:59:20;1.33;88.34
72128;DHT22;60000;51.030;7.024;2024-01-27T02:01:46;1.33;88.64
72128;DHT22;60000;51.030;7.024;2024-01-27T02:04:11;1.35;88.67
72128;DHT22;60000;51.030;7.024;2024-01-27T02:06:36;1.33;88.71
72128;DHT22;60000;51.030;7.024;2024-01-27T02:09:02;1.32;88.80
72128;DHT22;60000;51.030;7.024;2024-01-27T02:11:27;1.26;88.71
72128;DHT22;60000;51.030;7.024;2024-01-27T02:13:53;1.23;88.87
72128;DHT22;60000;51.030;7.024;2024-01-27T02:16:18;1.20;88.88
72128;DHT22;60000;51.030;7.024;2024-01-27T02:18:44;1.19;88.90
72128;DHT22;60000;51.030;7.024;2024-01-27T02:21:09;1.12;88.89
72128;DHT22;60000;51.030;7.024;2024-01-27T02:23:34;1.10;89.14
72128;DHT22;60000;51.030;7.024;2024-01-27T02:26:00;1.10;89.12
72128;DHT22;60000;51.030;7.024;2024-01-27T02:28:25;1.05;89.09
72128;DHT22;60000;51.030;7.024;2024-01-27T02:30:51;1.03;89.10
72128;DHT22;60000;51.030;7.024;2024-01-27T02:33:16;0.99;89.28
72128;DHT22;60000;51.030;7.024;2024-01-27T02:35:41;0.96;89.20
72128;DHT22;60000;51.030;7.024;2024-01-27T02:38:08;0.92;89.23
72128;DHT22;60000;51.030;7.024;2024-01-27T02:40:34;0.92;89.38
72128;DHT22;60000;51.030;7.024;2024-01-27T02:42:59;0.85;89.30
72128;DHT22;60000;51.030;7.024;2024-01-27T02:45:24;0.82;89.23
72128;DHT22;60000;51.030;7.024;2024-01-27T02:47:50;0.79;89.41
72128;DHT22;60000;51.030;7.024;2024-01-27T02:50:15;0.79;89.78
72128;DHT22;60000;51.030;7.024;2024-01-27T02:52:40;0.81;89.82
72128;DHT22;60000;51.030;7.024;2024-01-27T02:55:06;0.76;89.77
72128;DHT22;60000;51.030;7.024;2024-01-27T02:57:31;0.71;89.72
72128;DHT22;60000;51.030;7.024;2024-01-27T02:59:57;0.69;89.74
72128;DHT22;60000;51.030;7.024;2024-01-27T03:02:22;0.69;89.85
72128;DHT22;60000;51.030;7.024;2024-01-27T03:04:47;0.67;89.97
72128;DHT22;60000;51.030;7.024;2024-01-27T03:07:13;0.64;89.90
72128;DHT22;60000;51.030;7.024;2024-01-27T03:09:38;0.64;89.99
72128;DHT22;60000;51.030;7.024;2024-01-27T03:12:03;0.62;90.16
72128;DHT22;60000;51.030;7.024;2024-01-27T03:14:29;0.62;90.29
72128;DHT22;60000;51.030;7.024;2024-01-27T03:16:54;0.61;90.22
72128;DHT22;60000;51.030;7.024;2024-01-27T03:19:20;0.57;90.24
72128;DHT22;60000;51.030;7.024;2024-01-27T03:21:45;0.55;90.26
72128;DHT22;60000;51.030;7.024;2024-01-27T03:24:11;0.54;90.34
72128;DHT22;60000;51.030;7.024;2024-01-27T03:26:36;0.51;90.37
72128;DHT22;60000;51.030;7.024;2024-01-27T03:29:01;0.51;90.44
72128;DHT22;60000;51.030;7.024;2024-01-27T03:31:31;0.47;90.48
72128;DHT22;60000;51.030;7.024;2024-01-27T03:33:58;0.47;90.52
72128;DHT22;60000;51.030;7.024;2024-01-27T03:36:23;0.46;90.59
72128;DHT22;60000;51.030;7.024;2024-01-27T03:38:49;0.47;90.56
72128;DHT22;60000;51.030;7.024;2024-01-27T03:41:14;0.41;90.51
72128;DHT22;60000;51.030;7.024;2024-01-27T03:43:39;0.36;90.44
72128;DHT22;60000;51.030;7.024;2024-01-27T03:46:04;0.33;90.53
72128;DHT22;60000;51.030;7.024;2024-01-27T03:48:30;0.30;90.47
72128;DHT22;60000;51.030;7.024;2024-01-27T03:50:55;0.26;90.53
72128;DHT22;60000;51.030;7.024;2024-01-27T03:53:20;0.27;90.82
72128;DHT22;60000;51.030;7.024;2024-01-27T03:55:46;0.24;90.93
72128;DHT22;60000;51.030;7.024;2024-01-27T03:58:11;0.24;91.00
72128;DHT22;60000;51.030;7.024;2024-01-27T04:00:36;0.26;91.02
72128;DHT22;60000;51.030;7.024;2024-01-27T04:03:02;0.23;90.92
72128;DHT22;60000;51.030;7.024;2024-01-27T04:05:29;0.20;90.99
72128;DHT22;60000;51.030;7.024;2024-01-27T04:07:55;0.20;91.10
72128;DHT22;60000;51.030;7.024;2024-01-27T04:10:22;0.16;91.06
72128;DHT22;60000;51.030;7.024;2024-01-27T04:12:47;0.18;91.32
72128;DHT22;60000;51.030;7.024;2024-01-27T04:15:13;0.16;91.25
72128;DHT22;60000;51.030;7.024;2024-01-27T04:17:39;0.16;91.38
72128;DHT22;60000;51.030;7.024;2024-01-27T04:20:05;0.17;91.33
72128;DHT22;60000;51.030;7.024;2024-01-27T04:22:32;0.16;91.54
72128;DHT22;60000;51.030;7.024;2024-01-27T04:24:57;0.14;91.53
72128;DHT22;60000;51.030;7.024;2024-01-27T04:27:23;0.14;91.65
72128;DHT22;60000;51.030;7.024;2024-01-27T04:29:48;0.14;91.53
72128;DHT22;60000;51.030;7.024;2024-01-27T04:32:14;0.11;91.50
72128;DHT22;60000;51.030;7.024;2024-01-27T04:34:39;0.13;91.57
72128;DHT22;60000;51.030;7.024;2024-01-27T04:37:05;0.10;91.62
72128;DHT22;60000;51.030;7.024;2024-01-27T04:39:30;0.09;91.59
72128;DHT22;60000;51.030;7.024;2024-01-27T04:41:55;0.10;91.79
72128;DHT22;60000;51.030;7.024;2024-01-27T04:44:21;0.07;91.79
72128;DHT22;60000;51.030;7.024;2024-01-27T04:46:46;0.07;91.91
72128;DHT22;60000;51.030;7.024;2024-01-27T04:49:11;0.07;91.67
72128;DHT22;60000;51.030;7.024;2024-01-27T04:51:37;0.03;91.76
72128;DHT22;60000;51.030;7.024;2024-01-27T04:54:02;0.05;91.88
72128;DHT22;60000;51.030;7.024;2024-01-27T04:56:28;0.02;91.90
72128;DHT22;60000;51.030;7.024;2024-01-27T04:58:53;0.02;91.99
72128;DHT22;60000;51.030;7.024;2024-01-27T05:01:18;0.00;91.90
72128;DHT22;60000;51.030;7.024;2024-01-27T05:03:43;0.00;92.05
72128;DHT22;60000;51.030;7.024;2024-01-27T05:06:10;0.05;92.16
72128;DHT22;60000;51.030;7.024;2024-01-27T05:08:35;0.00;92.13
72128;DHT22;60000;51.030;7.024;2024-01-27T05:11:01;0.02;92.22
72128;DHT22;60000;51.030;7.024;2024-01-27T05:13:26;0.00;92.26
72128;DHT22;60000;51.030;7.024;2024-01-27T05:15:51;0.02;92.21
72128;DHT22;60000;51.030;7.024;2024-01-27T05:18:17;-0.01;92.26
72128;DHT22;60000;51.030;7.024;2024-01-27T05:20:42;0.02;92.28
72128;DHT22;60000;51.030;7.024;2024-01-27T05:23:07;0.00;92.33
72128;DHT22;60000;51.030;7.024;2024-01-27T05:25:33;-0.01;92.20
72128;DHT22;60000;51.030;7.024;2024-01-27T05:27:58;-0.03;92.07
72128;DHT22;60000;51.030;7.024;2024-01-27T05:30:23;-0.07;92.15
72128;DHT22;60000;51.030;7.024;2024-01-27T05:32:49;-0.08;92.16
72128;DHT22;60000;51.030;7.024;2024-01-27T05:35:14;-0.08;92.14
72128;DHT22;60000;51.030;7.024;2024-01-27T05:37:39;-0.13;92.03
72128;DHT22;60000;51.030;7.024;2024-01-27T05:40:06;-0.21;92.02
72128;DHT22;60000;51.030;7.024;2024-01-27T05:42:32;-0.19;92.18
72128;DHT22;60000;51.030;7.024;2024-01-27T05:44:58;-0.22;92.30
72128;DHT22;60000;51.030;7.024;2024-01-27T05:47:23;-0.18;92.26
72128;DHT22;60000;51.030;7.024;2024-01-27T05:49:48;-0.24;92.18
72128;DHT22;60000;51.030;7.024;2024-01-27T05:52:14;-0.25;92.26
72128;DHT22;60000;51.030;7.024;2024-01-27T05:54:40;-0.24;92.43
72128;DHT22;60000;51.030;7.024;2024-01-27T05:57:07;-0.25;92.37
72128;DHT22;60000;51.030;7.024;2024-01-27T05:59:32;-0.25;92.59
72128;DHT22;60000;51.030;7.024;2024-01-27T06:01:57;-0.25;92.68
72128;DHT22;60000;51.030;7.024;2024-01-27T06:04:23;-0.24;92.66
72128;DHT22;60000;51.030;7.024;2024-01-27T06:06:48;-0.25;92.75
72128;DHT22;60000;51.030;7.024;2024-01-27T06:09:13;-0.25;92.66
72128;DHT22;60000;51.030;7.024;2024-01-27T06:11:39;-0.24;92.73
72128;DHT22;60000;51.030;7.024;2024-01-27T06:14:04;-0.24;92.73
72128;DHT22;60000;51.030;7.024;2024-01-27T06:16:30;-0.25;92.86
72128;DHT22;60000;51.030;7.024;2024-01-27T06:18:55;-0.25;92.73
72128;DHT22;60000;51.030;7.024;2024-01-27T06:21:21;-0.21;92.89
72128;DHT22;60000;51.030;7.024;2024-01-27T06:23:46;-0.25;92.84
72128;DHT22;60000;51.030;7.024;2024-01-27T06:26:13;-0.26;92.77
72128;DHT22;60000;51.030;7.024;2024-01-27T06:28:39;-0.28;92.81
72128;DHT22;60000;51.030;7.024;2024-01-27T06:31:04;-0.26;92.92
72128;DHT22;60000;51.030;7.024;2024-01-27T06:33:30;-0.25;93.09
72128;DHT22;60000;51.030;7.024;2024-01-27T06:35:56;-0.22;93.29
72128;DHT22;60000;51.030;7.024;2024-01-27T06:38:21;-0.19;93.35
72128;DHT22;60000;51.030;7.024;2024-01-27T06:40:47;-0.18;93.09
72128;DHT22;60000;51.030;7.024;2024-01-27T06:43:12;-0.19;93.24
72128;DHT22;60000;51.030;7.024;2024-01-27T06:45:38;-0.18;93.29
72128;DHT22;60000;51.030;7.024;2024-01-27T06:48:04;-0.18;93.24
72128;DHT22;60000;51.030;7.024;2024-01-27T06:50:30;-0.17;93.22
72128;DHT22;60000;51.030;7.024;2024-01-27T06:52:55;-0.17;93.21
72128;DHT22;60000;51.030;7.024;2024-01-27T06:55:20;-0.18;93.22
72128;DHT22;60000;51.030;7.024;2024-01-27T06:57:46;-0.17;93.33
72128;DHT22;60000;51.030;7.024;2024-01-27T07:00:12;-0.13;93.39
72128;DHT22;60000;51.030;7.024;2024-01-27T07:02:40;-0.11;93.55
72128;DHT22;60000;51.030;7.024;2024-01-27T07:05:07;-0.08;93.58
72128;DHT22;60000;51.030;7.024;2024-01-27T07:07:33;-0.05;93.50
72128;DHT22;60000;51.030;7.024;2024-01-27T07:09:58;-0.08;93.36
72128;DHT22;60000;51.030;7.024;2024-01-27T07:12:23;-0.03;93.56
72128;DHT22;60000;51.030;7.024;2024-01-27T07:14:49;0.00;93.50
72128;DHT22;60000;51.030;7.024;2024-01-27T07:17:14;-0.03;93.44
72128;DHT22;60000;51.030;7.024;2024-01-27T07:19:40;-0.01;93.53
72128;DHT22;60000;51.030;7.024;2024-01-27T07:22:05;0.02;93.56
72128;DHT22;60000;51.030;7.024;2024-01-27T07:24:31;0.03;93.74
72128;DHT22;60000;51.030;7.024;2024-01-27T07:26:57;0.09;93.68
72128;DHT22;60000;51.030;7.024;2024-01-27T07:29:23;0.10;93.57
72128;DHT22;60000;51.030;7.024;2024-01-27T07:31:49;0.10;93.54
72128;DHT22;60000;51.030;7.024;2024-01-27T07:34:15;0.14;93.38
72128;DHT22;60000;51.030;7.024;2024-01-27T07:36:40;0.13;93.42
72128;DHT22;60000;51.030;7.024;2024-01-27T07:39:05;0.13;93.47
72128;DHT22;60000;51.030;7.024;2024-01-27T07:41:31;0.18;93.48
72128;DHT22;60000;51.030;7.024;2024-01-27T07:44:07;0.20;93.64
72128;DHT22;60000;51.030;7.024;2024-01-27T07:46:33;0.23;93.53
72128;DHT22;60000;51.030;7.024;2024-01-27T07:48:58;0.21;93.31
72128;DHT22;60000;51.030;7.024;2024-01-27T07:51:24;0.26;93.38
72128;DHT22;60000;51.030;7.024;2024-01-27T07:53:50;0.30;93.45
72128;DHT22;60000;51.030;7.024;2024-01-27T07:56:15;0.34;93.41
72128;DHT22;60000;51.030;7.024;2024-01-27T07:58:40;0.37;93.51
72128;DHT22;60000;51.030;7.024;2024-01-27T08:01:05;0.41;93.53
72128;DHT22;60000;51.030;7.024;2024-01-27T08:03:31;0.43;93.41
72128;DHT22;60000;51.030;7.024;2024-01-27T08:05:56;0.46;93.33
72128;DHT22;60000;51.030;7.024;2024-01-27T08:08:21;0.50;93.37
72128;DHT22;60000;51.030;7.024;2024-01-27T08:10:47;0.51;93.24
72128;DHT22;60000;51.030;7.024;2024-01-27T08:13:12;0.54;93.22
72128;DHT22;60000;51.030;7.024;2024-01-27T08:15:37;0.58;93.25
72128;DHT22;60000;51.030;7.024;2024-01-27T08:18:03;0.64;93.29
72128;DHT22;60000;51.030;7.024;2024-01-27T08:20:28;0.67;93.40
72128;DHT22;60000;51.030;7.024;2024-01-27T08:22:53;0.74;93.37
72128;DHT22;60000;51.030;7.024;2024-01-27T08:25:19;0.82;93.21
72128;DHT22;60000;51.030;7.024;2024-01-27T08:27:44;0.95;93.23
72128;DHT22;60000;51.030;7.024;2024-01-27T08:30:10;1.02;92.99
72128;DHT22;60000;51.030;7.024;2024-01-27T08:32:35;1.07;92.84
72128;DHT22;60000;51.030;7.024;2024-01-27T08:35:01;1.23;93.22
72128;DHT22;60000;51.030;7.024;2024-01-27T08:37:26;1.40;93.51
72128;DHT22;60000;51.030;7.024;2024-01-27T08:39:52;1.60;93.83
72128;DHT22;60000;51.030;7.024;2024-01-27T08:42:17;1.75;93.55
72128;DHT22;60000;51.030;7.024;2024-01-27T08:44:43;1.98;93.42
72128;DHT22;60000;51.030;7.024;2024-01-27T08:47:08;2.15;93.13
72128;DHT22;60000;51.030;7.024;2024-01-27T08:49:33;2.25;92.29
72128;DHT22;60000;51.030;7.024;2024-01-27T08:51:59;2.39;91.84
72128;DHT22;60000;51.030;7.024;2024-01-27T08:54:24;2.49;90.30
72128;DHT22;60000;51.030;7.024;2024-01-27T08:56:49;2.58;89.39
72128;DHT22;60000;51.030;7.024;2024-01-27T08:59:15;2.68;88.94
72128;DHT22;60000;51.030;7.024;2024-01-27T09:01:41;2.87;89.62
72128;DHT22;60000;51.030;7.024;2024-01-27T09:04:07;3.12;89.70
72128;DHT22;60000;51.030;7.024;2024-01-27T09:06:33;3.34;88.89
72128;DHT22;60000;51.030;7.024;2024-01-27T09:08:58;3.53;88.20
72128;DHT22;60000;51.030;7.024;2024-01-27T09:11:23;3.72;87.38
72128;DHT22;60000;51.030;7.024;2024-01-27T09:13:49;3.76;85.28
72128;DHT22;60000;51.030;7.024;2024-01-27T09:16:17;3.95;85.78
72128;DHT22;60000;51.030;7.024;2024-01-27T09:18:43;4.07;84.81
72128;DHT22;60000;51.030;7.024;2024-01-27T09:21:08;4.21;84.01
72128;DHT22;60000;51.030;7.024;2024-01-27T09:23:34;4.30;82.28
72128;DHT22;60000;51.030;7.024;2024-01-27T09:25:59;4.41;82.30
72128;DHT22;60000;51.030;7.024;2024-01-27T09:28:25;4.49;81.58
72128;DHT22;60000;51.030;7.024;2024-01-27T09:30:51;4.73;82.10
72128;DHT22;60000;51.030;7.024;2024-01-27T09:33:16;4.84;80.69
72128;DHT22;60000;51.030;7.024;2024-01-27T09:35:45;5.06;80.94
72128;DHT22;60000;51.030;7.024;2024-01-27T09:38:10;5.21;79.98
72128;DHT22;60000;51.030;7.024;2024-01-27T09:40:38;5.40;79.63
72128;DHT22;60000;51.030;7.024;2024-01-27T09:43:03;5.40;77.38
72128;DHT22;60000;51.030;7.024;2024-01-27T09:45:29;5.40;77.22
72128;DHT22;60000;51.030;7.024;2024-01-27T09:47:57;5.34;76.23
72128;DHT22;60000;51.030;7.024;2024-01-27T09:50:24;5.35;76.47
72128;DHT22;60000;51.030;7.024;2024-01-27T09:52:50;5.64;77.62
72128;DHT22;60000;51.030;7.024;2024-01-27T09:55:15;5.81;76.65
72128;DHT22;60000;51.030;7.024;2024-01-27T09:57:41;5.89;75.14
72128;DHT22;60000;51.030;7.024;2024-01-27T10:00:10;6.07;76.29
72128;DHT22;60000;51.030;7.024;2024-01-27T10:02:38;6.19;75.07
72128;DHT22;60000;51.030;7.024;2024-01-27T10:05:05;6.34;75.25
72128;DHT22;60000;51.030;7.024;2024-01-27T10:07:31;6.38;73.23
72128;DHT22;60000;51.030;7.024;2024-01-27T10:09:57;6.45;73.13
72128;DHT22;60000;51.030;7.024;2024-01-27T10:12:22;6.50;73.09
72128;DHT22;60000;51.030;7.024;2024-01-27T10:14:49;6.53;72.76
72128;DHT22;60000;51.030;7.024;2024-01-27T10:17:24;6.67;72.22
72128;DHT22;60000;51.030;7.024;2024-01-27T10:20:05;6.77;72.21
72128;DHT22;60000;51.030;7.024;2024-01-27T10:22:39;6.85;71.57
72128;DHT22;60000;51.030;7.024;2024-01-27T10:25:06;7.12;72.46
72128;DHT22;60000;51.030;7.024;2024-01-27T10:27:31;7.19;70.44
72128;DHT22;60000;51.030;7.024;2024-01-27T10:29:57;7.18;69.49
72128;DHT22;60000;51.030;7.024;2024-01-27T10:32:22;7.12;69.62
72128;DHT22;60000;51.030;7.024;2024-01-27T10:35:10;7.27;70.65
72128;DHT22;60000;51.030;7.024;2024-01-27T10:37:35;7.53;70.64
72128;DHT22;60000;51.030;7.024;2024-01-27T10:40:08;7.71;70.29
72128;DHT22;60000;51.030;7.024;2024-01-27T10:42:35;7.85;69.48
72128;DHT22;60000;51.030;7.024;2024-01-27T10:45:00;8.02;69.32
72128;DHT22;60000;51.030;7.024;2024-01-27T10:47:27;8.16;68.39
72128;DHT22;60000;51.030;7.024;2024-01-27T10:49:55;8.26;67.53
72128;DHT22;60000;51.030;7.024;2024-01-27T10:52:37;8.41;67.18
72128;DHT22;60000;51.030;7.024;2024-01-27T10:55:04;8.62;67.14
72128;DHT22;60000;51.030;7.024;2024-01-27T10:57:33;8.62;65.86
72128;DHT22;60000;51.030;7.024;2024-01-27T11:00:00;8.69;65.74
72128;DHT22;60000;51.030;7.024;2024-01-27T11:02:28;8.77;65.10
72128;DHT22;60000;51.030;7.024;2024-01-27T11:04:56;8.97;64.87
72128;DHT22;60000;51.030;7.024;2024-01-27T11:07:21;9.10;64.37
72128;DHT22;60000;51.030;7.024;2024-01-27T11:09:50;9.20;63.94
72128;DHT22;60000;51.030;7.024;2024-01-27T11:12:17;9.41;64.72
72128;DHT22;60000;51.030;7.024;2024-01-27T11:14:43;9.52;63.45
72128;DHT22;60000;51.030;7.024;2024-01-27T11:17:10;9.68;62.51
72128;DHT22;60000;51.030;7.024;2024-01-27T11:19:35;9.62;61.64
72128;DHT22;60000;51.030;7.024;2024-01-27T11:22:04;9.55;61.19
72128;DHT22;60000;51.030;7.024;2024-01-27T11:24:29;9.53;61.69
72128;DHT22;60000;51.030;7.024;2024-01-27T11:27:04;9.55;61.70
72128;DHT22;60000;51.030;7.024;2024-01-27T11:29:30;9.63;61.91
72128;DHT22;60000;51.030;7.024;2024-01-27T11:32:00;9.56;61.04
72128;DHT22;60000;51.030;7.024;2024-01-27T11:34:25;9.59;61.25
72128;DHT22;60000;51.030;7.024;2024-01-27T11:36:50;9.56;61.25
72128;DHT22;60000;51.030;7.024;2024-01-27T11:39:29;9.63;61.71
72128;DHT22;60000;51.030;7.024;2024-01-27T11:42:08;9.39;61.22
72128;DHT22;60000;51.030;7.024;2024-01-27T11:44:35;9.39;61.67
72128;DHT22;60000;51.030;7.024;2024-01-27T11:47:01;9.43;61.37
72128;DHT22;60000;51.030;7.024;2024-01-27T11:49:26;9.48;61.47
72128;DHT22;60000;51.030;7.024;2024-01-27T11:51:52;9.45;60.99
72128;DHT22;60000;51.030;7.024;2024-01-27T11:54:17;9.43;60.96
72128;DHT22;60000;51.030;7.024;2024-01-27T11:56:42;9.46;60.98
72128;DHT22;60000;51.030;7.024;2024-01-27T11:59:09;9.45;60.62
72128;DHT22;60000;51.030;7.024;2024-01-27T12:01:35;9.46;60.98
72128;DHT22;60000;51.030;7.024;2024-01-27T12:04:00;9.42;60.55
72128;DHT22;60000;51.030;7.024;2024-01-27T12:06:26;9.42;60.55
72128;DHT22;60000;51.030;7.024;2024-01-27T12:08:53;9.48;61.13
72128;DHT22;60000;51.030;7.024;2024-01-27T12:11:19;9.48;61.01
72128;DHT22;60000;51.030;7.024;2024-01-27T12:13:44;9.46;60.89
72128;DHT22;60000;51.030;7.024;2024-01-27T12:16:09;9.46;61.34
72128;DHT22;60000;51.030;7.024;2024-01-27T12:18:35;9.48;61.48
72128;DHT22;60000;51.030;7.024;2024-01-27T12:21:01;9.52;61.28
72128;DHT22;60000;51.030;7.024;2024-01-27T12:23:26;9.52;60.14
72128;DHT22;60000;51.030;7.024;2024-01-27T12:25:55;9.56;60.97
72128;DHT22;60000;51.030;7.024;2024-01-27T12:28:22;9.62;61.03
72128;DHT22;60000;51.030;7.024;2024-01-27T12:30:52;9.68;60.39
72128;DHT22;60000;51.030;7.024;2024-01-27T12:33:18;9.66;59.67
72128;DHT22;60000;51.030;7.024;2024-01-27T12:35:48;9.69;60.00
72128;DHT22;60000;51.030;7.024;2024-01-27T12:38:13;9.68;59.02
72128;DHT22;60000;51.030;7.024;2024-01-27T12:40:39;9.69;59.37
72128;DHT22;60000;51.030;7.024;2024-01-27T12:43:04;9.65;59.23
72128;DHT22;60000;51.030;7.024;2024-01-27T12:45:29;9.66;59.30
72128;DHT22;60000;51.030;7.024;2024-01-27T12:47:55;9.66;59.55
72128;DHT22;60000;51.030;7.024;2024-01-27T12:50:20;9.69;58.85
72128;DHT22;60000;51.030;7.024;2024-01-27T12:52:45;9.65;58.62
72128;DHT22;60000;51.030;7.024;2024-01-27T12:55:11;9.59;58.30
72128;DHT22;60000;51.030;7.024;2024-01-27T12:57:36;9.58;58.40
72128;DHT22;60000;51.030;7.024;2024-01-27T13:00:02;9.53;58.10
72128;DHT22;60000;51.030;7.024;2024-01-27T13:02:36;9.45;58.15
72128;DHT22;60000;51.030;7.024;2024-01-27T13:05:02;9.35;58.51
72128;DHT22;60000;51.030;7.024;2024-01-27T13:07:27;9.32;59.02
72128;DHT22;60000;51.030;7.024;2024-01-27T13:09:53;9.30;59.09
72128;DHT22;60000;51.030;7.024;2024-01-27T13:12:18;9.28;59.55
72128;DHT22;60000;51.030;7.024;2024-01-27T13:14:43;9.35;59.33
72128;DHT22;60000;51.030;7.024;2024-01-27T13:17:09;9.28;58.86
72128;DHT22;60000;51.030;7.024;2024-01-27T13:19:34;9.31;58.94
72128;DHT22;60000;51.030;7.024;2024-01-27T13:21:59;9.30;58.84
72128;DHT22;60000;51.030;7.024;2024-01-27T13:24:25;9.25;59.12
72128;DHT22;60000;51.030;7.024;2024-01-27T13:26:51;9.22;59.18
72128;DHT22;60000;51.030;7.024;2024-01-27T13:29:17;9.25;59.54
72128;DHT22;60000;51.030;7.024;2024-01-27T13:31:42;9.25;58.86
72128;DHT22;60000;51.030;7.024;2024-01-27T13:34:08;9.15;58.66
72128;DHT22;60000;51.030;7.024;2024-01-27T13:36:33;9.11;58.78
72128;DHT22;60000;51.030;7.024;2024-01-27T13:38:59;9.07;58.49
72128;DHT22;60000;51.030;7.024;2024-01-27T13:41:25;9.00;58.27
72128;DHT22;60000;51.030;7.024;2024-01-27T13:43:50;8.97;59.03
72128;DHT22;60000;51.030;7.024;2024-01-27T13:46:16;9.00;59.33
72128;DHT22;60000;51.030;7.024;2024-01-27T13:48:41;9.00;59.45
72128;DHT22;60000;51.030;7.024;2024-01-27T13:51:07;8.99;59.28
72128;DHT22;60000;51.030;7.024;2024-01-27T13:53:32;8.99;59.66
72128;DHT22;60000;51.030;7.024;2024-01-27T13:55:58;8.99;59.27
72128;DHT22;60000;51.030;7.024;2024-01-27T13:58:25;8.97;58.93
72128;DHT22;60000;51.030;7.024;2024-01-27T14:00:50;8.94;59.19
72128;DHT22;60000;51.030;7.024;2024-01-27T14:03:15;8.90;59.33
72128;DHT22;60000;51.030;7.024;2024-01-27T14:05:41;8.88;59.72
72128;DHT22;60000;51.030;7.024;2024-01-27T14:08:08;8.84;59.01
72128;DHT22;60000;51.030;7.024;2024-01-27T14:10:34;8.81;59.32
72128;DHT22;60000;51.030;7.024;2024-01-27T14:13:03;8.83;59.65
72128;DHT22;60000;51.030;7.024;2024-01-27T14:15:32;8.79;59.35
72128;DHT22;60000;51.030;7.024;2024-01-27T14:17:57;8.80;59.72
72128;DHT22;60000;51.030;7.024;2024-01-27T14:20:23;8.76;59.49
72128;DHT22;60000;51.030;7.024;2024-01-27T14:22:48;8.73;59.74
72128;DHT22;60000;51.030;7.024;2024-01-27T14:25:14;8.71;59.60
72128;DHT22;60000;51.030;7.024;2024-01-27T14:27:40;8.69;59.68
72128;DHT22;60000;51.030;7.024;2024-01-27T14:30:05;8.66;59.73
72128;DHT22;60000;51.030;7.024;2024-01-27T14:32:31;8.64;59.66
72128;DHT22;60000;51.030;7.024;2024-01-27T14:34:56;8.60;59.77
72128;DHT22;60000;51.030;7.024;2024-01-27T14:37:22;8.57;59.95
72128;DHT22;60000;51.030;7.024;2024-01-27T14:39:47;8.53;59.67
72128;DHT22;60000;51.030;7.024;2024-01-27T14:42:14;8.49;59.90
72128;DHT22;60000;51.030;7.024;2024-01-27T14:44:40;8.48;59.80
72128;DHT22;60000;51.030;7.024;2024-01-27T14:47:06;8.39;59.73
72128;DHT22;60000;51.030;7.024;2024-01-27T14:49:32;8.36;59.73
72128;DHT22;60000;51.030;7.024;2024-01-27T14:51:58;8.33;59.69
72128;DHT22;60000;51.030;7.024;2024-01-27T14:54:23;8.31;59.92
72128;DHT22;60000;51.030;7.024;2024-01-27T14:56:48;8.25;59.89
72128;DHT22;60000;51.030;7.024;2024-01-27T14:59:14;8.19;60.04
72128;DHT22;60000;51.030;7.024;2024-01-27T15:01:39;8.21;60.28
72128;DHT22;60000;51.030;7.024;2024-01-27T15:04:05;8.16;60.41
72128;DHT22;60000;51.030;7.024;2024-01-27T15:06:30;8.12;60.27
72128;DHT22;60000;51.030;7.024;2024-01-27T15:08:56;8.11;60.52
72128;DHT22;60000;51.030;7.024;2024-01-27T15:11:21;8.08;60.57
72128;DHT22;60000;51.030;7.024;2024-01-27T15:13:47;8.02;60.61
72128;DHT22;60000;51.030;7.024;2024-01-27T15:16:12;7.98;60.87
72128;DHT22;60000;51.030;7.024;2024-01-27T15:18:37;7.91;60.96
72128;DHT22;60000;51.030;7.024;2024-01-27T15:21:06;7.87;61.01
72128;DHT22;60000;51.030;7.024;2024-01-27T15:23:32;7.82;61.27
72128;DHT22;60000;51.030;7.024;2024-01-27T15:25:57;7.78;61.35
72128;DHT22;60000;51.030;7.024;2024-01-27T15:28:22;7.71;61.59
72128;DHT22;60000;51.030;7.024;2024-01-27T15:30:48;7.63;61.57
72128;DHT22;60000;51.030;7.024;2024-01-27T15:33:14;7.59;61.67
72128;DHT22;60000;51.030;7.024;2024-01-27T15:35:40;7.51;61.92